Terminal Aerodrome Forecast
Issued by NWS

Home | Current Version | Previous Version | Text Only | Print | Product List | Glossary On
Versions: 1 2 3 4 5 6 7 8 9 10 11 12 13 14 15 16 17 18 19 20 21 22
000
FTUS45 KFGZ 020300 AAB
TAFSEZ
TAF AMD
KSEZ 020306Z 0203/0224 17005KT P6SM -RA SCT015 OVC045
      TEMPO 0203/0207 RA SCT008 BKN015
     FM020700 18010KT 5SM -RA OVC020
     FM021500 23015G25KT 2SM RA BR BKN008 OVC015=

USA.gov is the U.S. government's official web portal to all federal, state and local government web resources and services.